AirNav   SIMCOM
 
 986 users online  

8CO1 Prospect Peak Heliport
Texas Creek, Colorado, USA

GOING TO TEXAS CREEK?


FAA INFORMATION EFFECTIVE 20 JULY 2017

Location

FAA Identifier: 8CO1
Lat/Long: 38-28-40.0000N / 105-31-16.0000W
38-28.666667N / 105-31.266667W
38.4777778 / -105.5211111
(estimated)
Elevation: 8660 ft. / 2640 m (estimated)
Variation: 11E (1995)
From city: 5 miles NE of TEXAS CREEK, CO
Time zone: UTC -6 (UTC -7 during Standard Time)
Zip code: 81212

Heliport Operations

Heliport use: Private use. Permission required prior to landing
Activation date: 10/1997
Control tower: no
ARTCC: DENVER CENTER
FSS: DENVER FLIGHT SERVICE STATION
Attendance: UNATNDD
Segmented circle: no

Heliport Communications

WX AWOS-3 at 1V6 (20 nm E): 120.025 ((719)784-2014)

Nearby radio navigation aids

VOR radial/distance  VOR name  Freq  Var
FCSr239/37.9BUTTS VOR/DME108.8012E

 
NDB name  Hdg/Dist  Freq  Var  ID
IRONHORSE240/38.033512EIHS .. .... ...

Heliport Services

Runway Information

Helipad H1

Dimensions: 20 x 20 ft. / 6 x 6 m
Surface: dirt
Traffic pattern: leftleft

Heliport Ownership and Management from official FAA records

Ownership: Privately-owned
Owner: CENTURYLINK
7405 SOUTH PEORIA STREET
ENGLEWOOD, CO 80112
Phone (303) 643-4972
Manager: GEORGE KIMMES
7405 SOUTH PEORIA STREET
ENGLEWOOD, CO 80112
Phone (303) 643-4972
DARREN ALMSKOG 303-304-9960 DARREN.ALMSKOG@CENTURYLINK.COM

Additional Remarks

A52-H1 HAS +30 FT TWR 100 FT W.

Instrument Procedures

There are no published instrument procedures at 8CO1.

Some nearby airports with instrument procedures:

1V6 - Fremont County Airport (20 nm E)
KANK - Harriet Alexander Field Airport (25 nm W)
KAEJ - Central Colorado Regional Airport (35 nm NW)
KCOS - City of Colorado Springs Municipal Airport (43 nm NE)
KPUB - Pueblo Memorial Airport (49 nm E)
 
Loc | Ops | Rwys | IFR | FBO | Links
Com | Nav | Svcs | Stats | Notes


 
Area around 8CO1 (Prospect Peak Heliport)
 
Road maps at: MapQuest Bing Google
 
Aerial photo
No photo
 
Sectional chart

 
Airport distance calculator
Flying to Prospect Peak Heliport? Find the distance to fly.

From to 8CO1

Sunrise and sunset
Times for 27-Jul-2017
 Local
(UTC-6)
 Zulu
(UTC)
Morning civil twilight05:3111:31
Sunrise06:0112:01
Sunset20:1602:16
Evening civil twilight20:4602:46

Current date and time
Zulu (UTC)  28-Jul-2017 00:01:57
Local (UTC-6)  27-Jul-2017 18:01:57
 
METAR
KANK 
25nm W 
272355Z AUTO 21006KT 10SM SCT031 SCT044 BKN085 21/12 A3035 RMK AO1 T02080123 10280 20193
K4BM 
34nm N 
272355Z AUTO 09003KT 10SM SCT065 BKN080 BKN120 12/09 A3062 RMK AO2 LTG DSNT SE S AND NW
KAEJ 
35nm NW 
272355Z AUTO 10014KT 10SM CLR 20/08 A3032 RMK AO2 LTG DSNT E AND SE T02040075 10277 20203
KFCS 
37nm E 
272358Z AUTO 18007KT 10SM CLR 24/16 A3021 RMK AO2 SLP177 T02370159 10254 20222 402540146 57011 $
KMYP 
37nm W 
272351Z AUTO 03016G19KT BKN043 OVC060 10/06 A3074 RMK AO2 LTG DSNT ALQS PWINO
K7BM 
38nm NW 
272352Z AUTO 00000KT 10SM SCT070 SCT075 BKN090 19/06 A3046 RMK AO2 LTG DSNT E THRU SW
K04V 
38nm SW 
272350Z AUTO RMK AO2 TSNO PWINO
TAF
KFCS 
37nm E 
272101Z 2721/2903 17012KT 9999 VCTS BKN035CB BKN050 QNH3021INS TEMPO 2721/2803 VRB15G35KT 6000 -TSRAGS BECMG 2802/2803 18009KT 8000 -SHRA SCT010 BKN020 BKN030 QNH3019INS BECMG 2808/2809 VRB06KT 6000 BR FEW018 SCT170 QNH3018INS BECMG 2814/2815 15009KT 9999 NSW SCT080 BKN170 QNH3017INS BECMG 2820/2821 15012KT 9999 VCTS FEW020 SCT060CB QNH3015INS TX29/2820Z TN17/2811Z
KCOS 
43nm NE 
272102Z 2721/2818 15008KT P6SM BKN035 BKN140 FM272300 15012KT P6SM VCSH SCT040 BKN140 BKN200 FM280200 14007KT P6SM SCT050 BKN080 FM280700 VRB06KT P6SM SCT050 BKN100 FM281400 14007KT P6SM SCT080 BKN150
KAFF 
44nm NE 
272208Z 2722/2901 17009KT 9999 SCT020 BKN050 QNH3025INS BECMG 2722/2723 17010G15KT 9999 VCTS FEW010 BKN030CB QNH3024INS TEMPO 2724/2803 VRB15G20KT 9000 -TSRA BKN015CB BECMG 2802/2803 15009KT 9999 VCSH SCT010 BKN020 BKN050 QNH3025INS BECMG 2806/2807 VRB06KT 9999 NSW SCT020 BKN050 BKN080 QNH3026INS BECMG 2814/2815 15009KT 9999 SCT020 SCT080 SCT150 QNH3021INS BECMG 2820/2821 VRB20G30KT 6000 -TSRA SCT050CB SCT150 QNH3022INS TX26/2722Z TN15/2809Z LAST NO AMDS AFT 2801 NEXT 2811
NOTAMs
Click for the latest NOTAMs
NOTAMs are issued by the DoD/FAA and will open in a separate window not controlled by AirNav.

 

 
 

Would you like to see your business listed on this page?

 If your business provides an interesting product or service to pilots, flight crews, aircraft, or users of the Prospect Peak Heliport, you should consider listing it here.  To start the listing process, click on the button below
 
Add a business
 

Other Pages about Prospect Peak Heliport

Update a link
 
Copyright © AirNav, LLC. All rights reserved. Privacy Policy  Contact